createdAt,value
2022-10-25T00:00:14.977Z,19.10
2022-10-25T00:02:46.019Z,19.20
2022-10-25T00:05:17.086Z,19.10
2022-10-25T00:07:48.152Z,18.90
2022-10-25T00:10:22.239Z,18.80
2022-10-25T00:12:56.813Z,18.80
2022-10-25T00:15:27.802Z,18.80
2022-10-25T00:17:59.044Z,18.70
2022-10-25T00:20:30.014Z,18.80
2022-10-25T00:23:00.930Z,18.80
2022-10-25T00:25:31.862Z,18.80
2022-10-25T00:28:02.735Z,18.80
2022-10-25T00:30:33.901Z,19.00
2022-10-25T00:33:04.798Z,18.90
2022-10-25T00:35:37.093Z,18.80
2022-10-25T00:38:07.970Z,18.80
2022-10-25T00:40:38.896Z,18.60
2022-10-25T00:43:10.283Z,18.60
2022-10-25T00:45:41.226Z,18.60
2022-10-25T00:48:12.879Z,18.50
2022-10-25T00:50:53.565Z,18.40
2022-10-25T00:53:32.280Z,18.30
2022-10-25T00:56:15.184Z,18.30
2022-10-25T00:58:52.319Z,18.50
2022-10-25T01:01:24.906Z,18.40
2022-10-25T01:04:00.861Z,18.40
2022-10-25T01:06:42.342Z,18.20
2022-10-25T01:09:20.477Z,18.30
2022-10-25T01:11:51.496Z,18.30
2022-10-25T01:14:23.987Z,18.10
2022-10-25T01:17:19.979Z,18.00
2022-10-25T01:20:36.759Z,18.10
2022-10-25T01:24:02.461Z,17.90
2022-10-25T01:27:08.730Z,18.10
2022-10-25T01:29:57.704Z,17.90
2022-10-25T01:32:43.664Z,18.00
2022-10-25T01:35:39.543Z,18.00
2022-10-25T01:38:40.487Z,17.90
2022-10-25T01:41:36.820Z,17.80
2022-10-25T01:44:25.263Z,17.60
2022-10-25T01:47:08.130Z,17.70
2022-10-25T01:49:48.787Z,17.90
2022-10-25T01:52:22.384Z,17.80
2022-10-25T01:54:53.933Z,17.80
2022-10-25T01:57:42.769Z,18.00
2022-10-25T02:00:22.569Z,18.30
2022-10-25T02:03:20.455Z,18.10
2022-10-25T02:06:08.776Z,18.30
2022-10-25T02:09:21.528Z,18.50
2022-10-25T02:11:53.603Z,18.80
2022-10-25T02:14:34.289Z,19.00
2022-10-25T02:17:11.136Z,19.00
2022-10-25T02:19:47.962Z,18.90
2022-10-25T02:22:22.380Z,19.10
2022-10-25T02:24:56.476Z,19.10
2022-10-25T02:27:28.817Z,18.70
2022-10-25T02:30:00.410Z,18.70
2022-10-25T02:32:31.395Z,18.60
2022-10-25T02:35:03.481Z,18.90
2022-10-25T02:37:34.464Z,18.70
2022-10-25T02:40:06.344Z,18.80
2022-10-25T02:42:37.337Z,18.70
2022-10-25T02:45:08.921Z,18.80
2022-10-25T02:47:39.804Z,18.80
2022-10-25T02:50:11.011Z,19.00
2022-10-25T02:52:41.921Z,18.60
2022-10-25T02:55:12.784Z,18.60
2022-10-25T02:57:43.684Z,18.60
2022-10-25T03:00:15.469Z,18.80
2022-10-25T03:02:46.570Z,18.70
2022-10-25T03:05:17.728Z,18.90
2022-10-25T03:07:48.683Z,18.80
2022-10-25T03:10:19.614Z,18.70
2022-10-25T03:12:50.463Z,18.60
2022-10-25T03:15:21.394Z,18.50
2022-10-25T03:17:52.299Z,18.80
2022-10-25T03:20:23.221Z,18.60
2022-10-25T03:22:54.131Z,19.00
2022-10-25T03:25:25.035Z,18.90
2022-10-25T03:27:55.932Z,18.50
2022-10-25T03:30:28.709Z,18.70
2022-10-25T03:33:00.232Z,18.50
2022-10-25T03:35:31.111Z,18.60
2022-10-25T03:38:02.296Z,18.40
2022-10-25T03:40:33.252Z,18.40
2022-10-25T03:43:04.125Z,18.10
2022-10-25T03:45:35.132Z,18.10
2022-10-25T03:48:06.420Z,18.00
2022-10-25T03:50:37.427Z,18.10
2022-10-25T03:55:45.619Z,18.00
2022-10-25T03:58:17.264Z,18.00
2022-10-25T04:00:48.280Z,18.20
2022-10-25T04:03:19.232Z,18.30
2022-10-25T04:05:50.166Z,18.10
2022-10-25T04:08:21.075Z,18.00
2022-10-25T04:10:51.985Z,18.00
2022-10-25T04:13:23.293Z,17.90
2022-10-25T04:15:54.257Z,17.80
2022-10-25T04:18:25.179Z,17.80
2022-10-25T04:20:58.036Z,17.80
2022-10-25T04:23:28.912Z,17.90
2022-10-25T04:25:59.895Z,17.90
2022-10-25T04:28:30.856Z,17.90
2022-10-25T04:31:02.503Z,18.00
2022-10-25T04:33:33.382Z,18.00
2022-10-25T04:36:04.737Z,18.10
2022-10-25T04:38:35.961Z,17.90
2022-10-25T04:41:06.961Z,18.30
2022-10-25T04:43:37.918Z,18.40
2022-10-25T04:46:09.029Z,18.30
2022-10-25T04:48:41.287Z,18.00
2022-10-25T04:51:15.681Z,17.90
2022-10-25T04:53:46.562Z,17.70
2022-10-25T04:56:17.464Z,17.80
2022-10-25T04:58:48.358Z,17.70
2022-10-25T05:01:19.411Z,17.70
2022-10-25T05:03:50.392Z,17.60
2022-10-25T05:06:26.790Z,17.60
2022-10-25T05:08:57.674Z,17.50
2022-10-25T05:11:28.691Z,17.50
2022-10-25T05:13:59.655Z,17.50
2022-10-25T05:16:34.501Z,17.50
2022-10-25T05:19:05.465Z,17.40
2022-10-25T05:21:36.455Z,17.50
2022-10-25T05:24:07.442Z,17.60
2022-10-25T05:26:38.344Z,17.90
2022-10-25T05:29:13.916Z,17.80
2022-10-25T05:31:44.805Z,18.00
2022-10-25T05:34:15.700Z,17.90
2022-10-25T05:36:46.739Z,18.10
2022-10-25T05:39:17.600Z,18.40
2022-10-25T05:41:49.776Z,18.40
2022-10-25T05:44:20.653Z,18.50
2022-10-25T05:46:52.178Z,18.60
2022-10-25T05:49:23.104Z,18.60
2022-10-25T05:51:54.065Z,18.50
2022-10-25T05:54:25.118Z,18.30
2022-10-25T05:56:55.992Z,18.20
2022-10-25T05:59:27.040Z,18.20
2022-10-25T06:01:58.100Z,18.20
2022-10-25T06:04:29.232Z,18.40
2022-10-25T06:07:00.108Z,18.10
2022-10-25T06:09:31.005Z,18.20
2022-10-25T06:12:03.010Z,18.10
2022-10-25T06:14:35.858Z,18.00
2022-10-25T06:17:06.773Z,18.00
2022-10-25T06:19:38.032Z,18.10
2022-10-25T06:22:09.033Z,18.00
2022-10-25T06:24:39.921Z,18.00
2022-10-25T06:27:10.803Z,17.80
2022-10-25T06:29:41.675Z,17.90
2022-10-25T06:32:12.589Z,18.00
2022-10-25T06:34:43.468Z,17.80
2022-10-25T06:37:15.614Z,17.90
2022-10-25T06:39:46.490Z,17.90
2022-10-25T06:42:17.366Z,18.00
2022-10-25T06:44:49.573Z,18.30
2022-10-25T06:47:21.054Z,18.30
2022-10-25T06:49:52.834Z,18.30
2022-10-25T06:52:26.338Z,18.20
2022-10-25T06:54:57.304Z,18.30
2022-10-25T06:57:28.206Z,18.30
2022-10-25T07:02:31.924Z,18.70
2022-10-25T07:05:03.115Z,18.70
2022-10-25T07:07:34.014Z,18.80
2022-10-25T07:10:05.443Z,19.00
2022-10-25T07:12:38.150Z,18.90
2022-10-25T07:15:09.808Z,18.70
2022-10-25T07:17:41.223Z,18.70
2022-10-25T07:20:12.374Z,19.10
2022-10-25T07:22:43.493Z,18.80
2022-10-25T07:25:14.453Z,18.70
2022-10-25T07:27:45.702Z,18.80
2022-10-25T07:30:17.153Z,19.00
2022-10-25T07:32:48.032Z,18.90
2022-10-25T07:35:18.929Z,18.90
2022-10-25T07:37:49.927Z,19.10
2022-10-25T07:40:20.968Z,19.00
2022-10-25T07:42:52.094Z,19.20
2022-10-25T07:45:24.494Z,18.70
2022-10-25T07:47:57.376Z,19.00
2022-10-25T07:50:28.303Z,19.20
2022-10-25T07:52:59.245Z,19.60
2022-10-25T07:55:30.184Z,19.50
2022-10-25T07:58:02.815Z,19.60
2022-10-25T08:00:36.592Z,19.80
2022-10-25T08:03:07.695Z,19.60
2022-10-25T08:05:38.947Z,19.30
2022-10-25T08:08:09.935Z,19.70
2022-10-25T08:10:48.165Z,19.80
2022-10-25T08:13:19.918Z,20.20
2022-10-25T08:15:56.585Z,20.50
2022-10-25T08:18:27.689Z,19.80
2022-10-25T08:21:02.811Z,19.80
2022-10-25T08:23:36.343Z,19.80
2022-10-25T08:26:07.605Z,19.60
2022-10-25T08:28:38.499Z,19.60
2022-10-25T08:31:10.412Z,20.20
2022-10-25T08:33:41.646Z,20.50
2022-10-25T08:36:12.579Z,20.60
2022-10-25T08:38:43.480Z,20.80
2022-10-25T08:41:23.173Z,20.50
2022-10-25T08:44:37.555Z,20.70
2022-10-25T08:47:15.909Z,20.80
2022-10-25T08:50:04.748Z,20.60
2022-10-25T08:52:59.114Z,21.20
2022-10-25T08:55:41.794Z,21.00
2022-10-25T08:58:37.265Z,21.20
2022-10-25T09:01:17.098Z,21.30
2022-10-25T09:03:48.152Z,21.40
2022-10-25T09:06:46.928Z,21.70
2022-10-25T09:09:45.625Z,21.60
2022-10-25T09:12:31.159Z,21.00
2022-10-25T09:15:24.033Z,21.50
2022-10-25T09:17:55.522Z,21.40
2022-10-25T09:20:37.370Z,21.70
2022-10-25T09:23:31.595Z,21.50
2022-10-25T09:26:42.573Z,21.80
2022-10-25T09:29:53.557Z,22.10
2022-10-25T09:32:34.012Z,22.30
2022-10-25T09:35:14.400Z,22.10
2022-10-25T09:37:55.772Z,21.80
2022-10-25T09:40:35.653Z,22.10
2022-10-25T09:43:17.206Z,21.70
2022-10-25T09:45:57.321Z,22.00
2022-10-25T09:48:39.367Z,22.00
2022-10-25T09:51:24.348Z,22.40
2022-10-25T09:53:56.555Z,22.20
2022-10-25T09:56:27.464Z,22.40
2022-10-25T09:59:01.299Z,22.10
2022-10-25T10:01:35.301Z,22.60
2022-10-25T10:04:37.125Z,22.60
2022-10-25T10:07:16.600Z,22.30
2022-10-25T10:09:50.391Z,21.90
2022-10-25T10:12:28.637Z,22.00
2022-10-25T10:15:09.549Z,22.80
2022-10-25T10:17:40.440Z,22.50
2022-10-25T10:20:19.157Z,23.00
2022-10-25T10:22:53.718Z,23.40
2022-10-25T10:25:28.776Z,24.20
2022-10-25T10:27:59.684Z,24.30
2022-10-25T10:30:31.390Z,24.90
2022-10-25T10:33:02.890Z,25.40
2022-10-25T10:35:37.264Z,25.80
2022-10-25T10:38:20.572Z,25.60
2022-10-25T10:41:13.735Z,25.20
2022-10-25T10:43:44.661Z,25.10
2022-10-25T10:46:18.129Z,24.50
2022-10-25T10:48:55.635Z,24.00
2022-10-25T10:51:44.627Z,24.00
2022-10-25T10:54:31.233Z,24.20
2022-10-25T10:57:07.286Z,24.20
2022-10-25T10:59:46.616Z,24.70
2022-10-25T11:02:42.805Z,24.50
2022-10-25T11:05:35.449Z,24.00
2022-10-25T11:08:09.342Z,25.00
2022-10-25T11:10:40.346Z,25.30
2022-10-25T11:13:14.499Z,25.40
2022-10-25T11:16:31.137Z,25.00
2022-10-25T11:19:10.846Z,25.30
2022-10-25T11:22:12.156Z,25.90
2022-10-25T11:25:25.564Z,25.40
2022-10-25T11:28:26.612Z,24.80
2022-10-25T11:31:54.863Z,25.30
2022-10-25T11:35:01.607Z,26.10
2022-10-25T11:38:04.057Z,25.50
2022-10-25T11:40:41.707Z,26.10
2022-10-25T11:43:34.157Z,25.30
2022-10-25T11:46:35.517Z,26.20
2022-10-25T11:49:56.995Z,25.30
2022-10-25T11:53:23.611Z,26.60
2022-10-25T11:56:07.483Z,25.50
2022-10-25T11:58:50.180Z,25.10
2022-10-25T12:02:10.893Z,25.00
2022-10-25T12:04:56.802Z,25.60
2022-10-25T12:07:56.653Z,26.10
2022-10-25T12:10:42.448Z,26.10
2022-10-25T12:13:28.804Z,26.60
2022-10-25T12:16:00.421Z,26.90
2022-10-25T12:18:43.800Z,26.90
2022-10-25T12:21:27.895Z,26.70
2022-10-25T12:23:58.931Z,26.60
2022-10-25T12:26:35.253Z,25.90
2022-10-25T12:29:18.062Z,25.60
2022-10-25T12:31:59.132Z,25.30
2022-10-25T12:34:53.725Z,25.80
2022-10-25T12:37:45.081Z,25.40
2022-10-25T12:40:22.652Z,25.40
2022-10-25T12:43:09.700Z,25.30
2022-10-25T12:46:02.912Z,25.30
2022-10-25T12:49:00.963Z,25.60
2022-10-25T12:52:09.425Z,26.00
2022-10-25T12:55:23.243Z,25.90
2022-10-25T12:58:18.237Z,26.20
2022-10-25T13:01:17.845Z,26.50
2022-10-25T13:04:36.771Z,26.50
2022-10-25T13:07:09.059Z,26.60
2022-10-25T13:09:40.425Z,25.80
2022-10-25T13:12:30.643Z,25.80
2022-10-25T13:15:02.416Z,25.60
2022-10-25T13:17:39.271Z,25.40
2022-10-25T13:22:55.028Z,25.10
2022-10-25T13:25:31.976Z,25.20
2022-10-25T13:28:15.013Z,25.20
2022-10-25T13:30:46.041Z,25.20
2022-10-25T13:33:21.603Z,25.30
2022-10-25T13:35:52.603Z,25.40
2022-10-25T13:38:31.747Z,25.30
2022-10-25T13:41:06.480Z,25.60
2022-10-25T13:44:00.279Z,26.00
2022-10-25T13:46:36.883Z,26.00
2022-10-25T13:49:35.904Z,25.70
2022-10-25T13:52:21.347Z,25.60
2022-10-25T13:54:56.641Z,26.00
2022-10-25T13:57:54.904Z,25.50
2022-10-25T14:00:41.292Z,26.10
2022-10-25T14:03:15.060Z,25.70
2022-10-25T14:05:55.057Z,26.60
2022-10-25T14:08:48.947Z,26.60
2022-10-25T14:11:47.181Z,26.30
2022-10-25T14:14:42.615Z,25.90
2022-10-25T14:17:44.441Z,25.90
2022-10-25T14:20:31.670Z,25.70
2022-10-25T14:23:06.188Z,25.80
2022-10-25T14:25:42.850Z,25.60
2022-10-25T14:28:17.523Z,25.50
2022-10-25T14:30:52.969Z,25.60
2022-10-25T14:33:35.467Z,25.50
2022-10-25T14:36:26.848Z,25.50
2022-10-25T14:39:24.138Z,25.30
2022-10-25T14:42:01.239Z,25.10
2022-10-25T14:44:44.870Z,25.10
2022-10-25T14:47:33.786Z,25.20
2022-10-25T14:52:46.627Z,25.00
2022-10-25T14:55:32.637Z,24.90
2022-10-25T14:58:04.733Z,25.00
2022-10-25T15:00:35.784Z,25.00
2022-10-25T15:03:07.669Z,24.90
2022-10-25T15:05:41.593Z,24.80
2022-10-25T15:08:20.908Z,24.90
2022-10-25T15:11:04.215Z,25.00
2022-10-25T15:13:50.024Z,24.80
2022-10-25T15:16:42.521Z,24.60
2022-10-25T15:19:20.533Z,24.60
2022-10-25T15:21:53.285Z,24.50
2022-10-25T15:24:28.188Z,24.60
2022-10-25T15:27:07.736Z,24.60
2022-10-25T15:29:41.665Z,24.50
2022-10-25T15:32:25.425Z,24.30
2022-10-25T15:35:05.196Z,24.40
2022-10-25T15:37:39.598Z,24.30
2022-10-25T15:40:19.345Z,24.30
2022-10-25T15:42:50.311Z,24.20
2022-10-25T15:45:21.255Z,24.20
2022-10-25T15:47:55.073Z,24.10
2022-10-25T15:50:31.840Z,24.00
2022-10-25T15:53:05.836Z,24.00
2022-10-25T15:55:36.740Z,23.90
2022-10-25T15:58:09.863Z,23.80
2022-10-25T16:00:45.570Z,23.70
2022-10-25T16:03:27.230Z,23.70
2022-10-25T16:05:58.192Z,23.50
2022-10-25T16:08:29.246Z,23.40
2022-10-25T16:11:00.386Z,23.20
2022-10-25T16:16:48.041Z,23.10
2022-10-25T16:19:21.641Z,22.90
2022-10-25T16:21:52.530Z,22.70
2022-10-25T16:24:32.047Z,22.60
2022-10-25T16:27:05.795Z,22.40
2022-10-25T16:29:39.610Z,22.50
2022-10-25T16:32:20.973Z,22.30
2022-10-25T16:34:51.949Z,22.30
2022-10-25T16:37:23.111Z,22.20
2022-10-25T16:39:54.037Z,22.10
2022-10-25T16:42:47.170Z,22.00
2022-10-25T16:45:55.540Z,21.80
2022-10-25T16:48:29.316Z,21.70
2022-10-25T16:51:00.413Z,21.60
2022-10-25T16:53:52.852Z,21.70
2022-10-25T16:56:28.744Z,21.70
2022-10-25T16:59:03.423Z,21.60
2022-10-25T17:01:40.037Z,21.50
2022-10-25T17:04:17.460Z,21.50
2022-10-25T17:06:48.442Z,21.50
2022-10-25T17:09:19.389Z,21.40
2022-10-25T17:12:14.514Z,22.10
2022-10-25T17:14:48.855Z,21.70
2022-10-25T17:19:57.873Z,21.10
2022-10-25T17:22:28.763Z,21.00
2022-10-25T17:24:59.664Z,20.80
2022-10-25T17:27:30.900Z,20.90
2022-10-25T17:30:13.094Z,20.70
2022-10-25T17:32:44.131Z,20.80
2022-10-25T17:35:17.996Z,20.70
2022-10-25T17:37:56.337Z,20.70
2022-10-25T17:40:27.919Z,20.50
2022-10-25T17:43:01.566Z,20.50
2022-10-25T17:45:32.789Z,20.50
2022-10-25T17:48:06.803Z,20.40
2022-10-25T17:50:41.140Z,20.40
2022-10-25T17:53:14.732Z,20.40
2022-10-25T17:55:49.875Z,20.30
2022-10-25T17:58:23.046Z,20.20
2022-10-25T18:00:54.559Z,20.20
2022-10-25T18:03:27.801Z,20.10
2022-10-25T18:08:59.157Z,20.10
2022-10-25T18:11:32.940Z,20.00
2022-10-25T18:14:07.243Z,20.00
2022-10-25T18:16:38.390Z,20.00
2022-10-25T18:19:20.902Z,20.00
2022-10-25T18:21:55.241Z,19.90
2022-10-25T18:24:39.644Z,19.90
2022-10-25T18:27:12.628Z,19.90
2022-10-25T18:29:51.795Z,19.70
2022-10-25T18:32:37.947Z,19.60
2022-10-25T18:35:10.051Z,19.80
2022-10-25T18:37:46.609Z,19.80
2022-10-25T18:40:18.343Z,19.70
2022-10-25T18:42:50.737Z,19.90
2022-10-25T18:45:22.382Z,20.70
2022-10-25T18:47:56.014Z,21.10
2022-10-25T18:50:27.149Z,20.40
2022-10-25T18:53:00.394Z,20.20
2022-10-25T18:55:32.490Z,20.20
2022-10-25T18:58:03.836Z,20.40
2022-10-25T19:00:35.470Z,20.20
2022-10-25T19:03:06.439Z,20.20
2022-10-25T19:05:40.391Z,20.00
2022-10-25T19:08:13.046Z,20.00
2022-10-25T19:10:44.533Z,19.70
2022-10-25T19:13:19.653Z,19.60
2022-10-25T19:15:50.618Z,19.70
2022-10-25T19:18:28.661Z,19.70
2022-10-25T19:21:05.987Z,19.50
2022-10-25T19:23:39.277Z,19.50
2022-10-25T19:26:14.008Z,19.60
2022-10-25T19:28:45.308Z,19.40
2022-10-25T19:31:19.548Z,20.50
2022-10-25T19:33:52.737Z,21.30
2022-10-25T19:36:24.063Z,20.30
2022-10-25T19:38:55.744Z,20.00
2022-10-25T19:41:28.259Z,20.00
2022-10-25T19:43:59.790Z,19.90
2022-10-25T19:46:31.060Z,19.90
2022-10-25T19:49:02.154Z,19.90
2022-10-25T19:51:33.314Z,19.80
2022-10-25T19:54:04.411Z,19.80
2022-10-25T19:56:37.437Z,19.70
2022-10-25T19:59:11.691Z,19.80
2022-10-25T20:01:45.902Z,19.80
2022-10-25T20:04:18.017Z,19.90
2022-10-25T20:06:49.518Z,20.00
2022-10-25T20:09:23.206Z,20.20
2022-10-25T20:12:01.597Z,20.10
2022-10-25T20:14:39.245Z,20.00
2022-10-25T20:17:10.293Z,20.10
2022-10-25T20:19:46.520Z,20.30
2022-10-25T20:22:17.619Z,20.10
2022-10-25T20:24:49.017Z,20.70
2022-10-25T20:27:20.115Z,20.70
2022-10-25T20:29:51.317Z,20.70
2022-10-25T20:32:22.588Z,20.70
2022-10-25T20:34:53.587Z,20.50
2022-10-25T20:37:24.635Z,20.30
2022-10-25T20:39:55.780Z,20.20
2022-10-25T20:42:26.876Z,20.00
2022-10-25T20:44:57.980Z,20.00
2022-10-25T20:47:28.922Z,20.00
2022-10-25T20:49:59.944Z,20.10
2022-10-25T20:52:31.499Z,20.50
2022-10-25T20:55:02.931Z,21.00
2022-10-25T20:57:34.745Z,20.70
2022-10-25T21:00:07.767Z,20.50
2022-10-25T21:02:39.332Z,20.30
2022-10-25T21:05:10.378Z,20.00
2022-10-25T21:07:41.584Z,20.10
2022-10-25T21:10:12.683Z,19.90
2022-10-25T21:12:43.613Z,19.80
2022-10-25T21:15:14.839Z,19.70
2022-10-25T21:17:49.723Z,19.80
2022-10-25T21:20:20.821Z,19.60
2022-10-25T21:22:52.018Z,19.60
2022-10-25T21:25:23.555Z,19.60
2022-10-25T21:27:56.783Z,19.40
2022-10-25T21:30:28.120Z,19.50
2022-10-25T21:32:59.347Z,19.60
2022-10-25T21:35:30.508Z,19.60
2022-10-25T21:38:01.376Z,19.30
2022-10-25T21:40:32.296Z,19.30
2022-10-25T21:43:04.381Z,19.50
2022-10-25T21:45:35.327Z,19.50
2022-10-25T21:48:06.613Z,19.40
2022-10-25T21:50:38.006Z,19.70
2022-10-25T21:53:09.380Z,19.90
2022-10-25T21:55:40.805Z,19.90
2022-10-25T21:58:11.728Z,19.80
2022-10-25T22:00:43.202Z,19.60
2022-10-25T22:03:14.138Z,19.70
2022-10-25T22:05:45.045Z,19.80
2022-10-25T22:08:16.429Z,19.90
2022-10-25T22:11:19.251Z,19.80
2022-10-25T22:13:59.861Z,19.90
2022-10-25T22:16:33.681Z,20.50
2022-10-25T22:19:18.337Z,20.50
2022-10-25T22:21:50.587Z,20.20
2022-10-25T22:24:21.543Z,20.00
2022-10-25T22:26:52.801Z,20.20
2022-10-25T22:29:24.596Z,20.10
2022-10-25T22:31:55.533Z,20.00
2022-10-25T22:34:27.929Z,19.90
2022-10-25T22:37:01.268Z,19.90
2022-10-25T22:39:32.216Z,19.90
2022-10-25T22:42:03.324Z,20.00
2022-10-25T22:44:34.225Z,20.00
2022-10-25T22:47:05.496Z,19.90
2022-10-25T22:49:36.425Z,19.80
2022-10-25T22:52:07.295Z,19.70
2022-10-25T22:54:38.185Z,19.90
2022-10-25T22:57:09.152Z,19.90
2022-10-25T22:59:40.024Z,19.80
2022-10-25T23:02:10.904Z,20.10
2022-10-25T23:04:41.839Z,20.20
2022-10-25T23:07:12.765Z,20.20
2022-10-25T23:09:43.669Z,19.90
2022-10-25T23:12:14.546Z,19.80
2022-10-25T23:14:45.436Z,19.90
2022-10-25T23:17:16.320Z,20.20
2022-10-25T23:19:47.219Z,20.00
2022-10-25T23:22:18.091Z,19.90
2022-10-25T23:24:49.113Z,20.40
2022-10-25T23:27:19.970Z,20.70
2022-10-25T23:29:50.856Z,20.30
2022-10-25T23:32:21.744Z,20.20
2022-10-25T23:34:54.969Z,20.20
2022-10-25T23:37:27.887Z,20.10
2022-10-25T23:39:58.759Z,19.90
2022-10-25T23:42:29.674Z,19.70
2022-10-25T23:45:03.194Z,19.70
2022-10-25T23:47:34.928Z,19.80
2022-10-25T23:50:07.364Z,20.00
2022-10-25T23:52:38.291Z,19.80
2022-10-25T23:55:09.500Z,19.80
2022-10-25T23:57:40.462Z,20.00
